createdAt,value
2019-04-11T00:01:16.366Z,15.18
2019-04-11T00:02:24.772Z,15.25
2019-04-11T00:03:29.978Z,15.28
2019-04-11T00:04:35.043Z,15.80
2019-04-11T00:05:41.157Z,16.65
2019-04-11T00:06:47.762Z,17.40
2019-04-11T00:07:52.843Z,17.42
2019-04-11T00:08:58.597Z,15.38
2019-04-11T00:10:06.154Z,16.97
2019-04-11T00:11:11.893Z,14.50
2019-04-11T00:12:17.098Z,15.72
2019-04-11T00:13:25.625Z,16.75
2019-04-11T00:14:29.653Z,14.87
2019-04-11T00:15:34.930Z,14.23
2019-04-11T00:16:40.075Z,14.43
2019-04-11T00:17:45.996Z,16.32
2019-04-11T00:18:51.403Z,14.38
2019-04-11T00:19:56.476Z,16.02
2019-04-11T00:21:01.528Z,15.30
2019-04-11T00:22:06.485Z,12.98
2019-04-11T00:23:12.203Z,12.65
2019-04-11T00:24:17.133Z,12.88
2019-04-11T00:25:23.142Z,12.30
2019-04-11T00:26:28.594Z,10.32
2019-04-11T00:27:34.877Z,11.53
2019-04-11T00:28:40.183Z,12.23
2019-04-11T00:29:45.091Z,12.82
2019-04-11T00:30:50.474Z,12.00
2019-04-11T00:31:56.925Z,11.20
2019-04-11T00:33:02.297Z,11.68
2019-04-11T00:34:07.342Z,11.78
2019-04-11T00:35:12.478Z,12.82
2019-04-11T00:36:17.567Z,11.75
2019-04-11T00:37:23.200Z,11.00
2019-04-11T00:38:28.394Z,11.83
2019-04-11T00:39:33.417Z,12.37
2019-04-11T00:40:39.446Z,11.30
2019-04-11T00:41:44.767Z,11.95
2019-04-11T00:42:50.530Z,14.83
2019-04-11T00:43:56.635Z,12.43
2019-04-11T00:45:01.862Z,10.72
2019-04-11T00:46:07.894Z,12.43
2019-04-11T00:47:13.122Z,12.00
2019-04-11T00:48:18.152Z,12.25
2019-04-11T00:49:24.147Z,11.30
2019-04-11T00:50:30.126Z,12.63
2019-04-11T00:51:36.066Z,12.30
2019-04-11T00:52:41.309Z,12.65
2019-04-11T00:53:46.561Z,13.55
2019-04-11T00:54:51.428Z,12.35
2019-04-11T00:55:56.754Z,13.35
2019-04-11T00:57:01.971Z,8.98
2019-04-11T00:58:07.492Z,10.58
2019-04-11T00:59:12.582Z,9.65
2019-04-11T01:00:18.654Z,8.28
2019-04-11T01:01:24.032Z,8.40
2019-04-11T01:02:29.435Z,9.58
2019-04-11T01:03:34.606Z,8.73
2019-04-11T01:04:39.694Z,7.37
2019-04-11T01:05:45.723Z,9.50
2019-04-11T01:06:54.352Z,11.10
2019-04-11T01:07:59.845Z,9.30
2019-04-11T01:09:06.374Z,7.85
2019-04-11T01:10:11.867Z,7.97
2019-04-11T01:11:17.154Z,9.55
2019-04-11T01:12:22.665Z,7.80
2019-04-11T01:13:39.171Z,7.85
2019-04-11T01:14:37.094Z,9.20
2019-04-11T01:15:45.059Z,9.40
2019-04-11T01:16:52.673Z,8.35
2019-04-11T01:17:58.068Z,10.48
2019-04-11T01:19:04.568Z,9.18
2019-04-11T01:20:11.255Z,8.43
2019-04-11T01:21:17.879Z,7.22
2019-04-11T01:22:24.338Z,9.55
2019-04-11T01:23:30.929Z,7.90
2019-04-11T01:24:36.347Z,8.63
2019-04-11T01:25:41.764Z,8.50
2019-04-11T01:26:47.621Z,9.78
2019-04-11T01:27:52.856Z,8.90
2019-04-11T01:28:58.797Z,10.82
2019-04-11T01:30:06.173Z,8.43
2019-04-11T01:31:11.752Z,8.93
2019-04-11T01:32:17.982Z,8.80
2019-04-11T01:33:24.112Z,8.83
2019-04-11T01:34:30.708Z,8.83
2019-04-11T01:35:36.006Z,7.90
2019-04-11T01:36:41.287Z,7.75
2019-04-11T01:37:46.632Z,8.85
2019-04-11T01:38:54.798Z,9.98
2019-04-11T01:40:01.935Z,8.10
2019-04-11T01:41:07.373Z,9.88
2019-04-11T01:42:16.156Z,8.63
2019-04-11T01:43:21.938Z,7.87
2019-04-11T01:44:28.316Z,8.63
2019-04-11T01:45:33.867Z,9.00
2019-04-11T01:46:39.020Z,10.05
2019-04-11T01:48:16.142Z,15.23
2019-04-11T01:49:23.950Z,8.90
2019-04-11T01:50:32.708Z,11.93
2019-04-11T01:51:38.017Z,11.33
2019-04-11T01:52:43.073Z,11.05
2019-04-11T01:53:48.921Z,10.78
2019-04-11T01:54:54.370Z,8.28
2019-04-11T01:55:59.552Z,9.45
2019-04-11T01:57:05.441Z,9.28
2019-04-11T01:58:10.834Z,9.93
2019-04-11T01:59:16.072Z,9.55
2019-04-11T02:00:39.838Z,8.73
2019-04-11T02:02:09.996Z,8.40
2019-04-11T02:03:17.117Z,9.18
2019-04-11T02:04:30.047Z,9.48
2019-04-11T02:05:35.538Z,9.33
2019-04-11T02:06:40.643Z,9.28
2019-04-11T02:07:46.913Z,8.23
2019-04-11T02:08:52.110Z,7.65
2019-04-11T02:09:57.252Z,10.18
2019-04-11T02:11:03.356Z,9.88
2019-04-11T02:12:09.893Z,9.55
2019-04-11T02:13:15.408Z,8.03
2019-04-11T02:14:21.467Z,8.25
2019-04-11T02:15:28.255Z,9.93
2019-04-11T02:16:33.410Z,10.05
2019-04-11T02:17:39.120Z,7.75
2019-04-11T02:18:44.360Z,8.33
2019-04-11T02:19:50.288Z,9.98
2019-04-11T02:20:55.752Z,7.55
2019-04-11T02:22:19.068Z,6.53
2019-04-11T02:23:30.862Z,8.43
2019-04-11T02:24:50.175Z,7.35
2019-04-11T02:26:20.930Z,6.85
2019-04-11T02:27:27.475Z,8.43
2019-04-11T02:28:32.864Z,8.93
2019-04-11T02:29:38.104Z,7.75
2019-04-11T02:30:48.369Z,8.10
2019-04-11T02:31:54.850Z,8.73
2019-04-11T02:33:00.811Z,7.28
2019-04-11T02:34:08.328Z,8.08
2019-04-11T02:35:13.480Z,8.08
2019-04-11T02:36:20.728Z,8.78
2019-04-11T02:37:26.440Z,9.15
2019-04-11T02:38:32.700Z,9.80
2019-04-11T02:39:38.656Z,10.68
2019-04-11T02:40:45.402Z,11.20
2019-04-11T02:41:52.703Z,12.00
2019-04-11T02:42:57.387Z,11.48
2019-04-11T02:44:03.626Z,10.20
2019-04-11T02:45:24.788Z,10.68
2019-04-11T02:46:22.966Z,13.48
2019-04-11T02:47:27.638Z,16.20
2019-04-11T02:48:31.056Z,20.30
2019-04-11T02:49:36.566Z,15.80
2019-04-11T02:50:43.291Z,14.20
2019-04-11T02:51:49.516Z,13.32
2019-04-11T02:52:56.647Z,14.35
2019-04-11T02:54:02.500Z,12.03
2019-04-11T02:55:10.660Z,13.00
2019-04-11T02:56:17.399Z,13.10
2019-04-11T02:57:25.666Z,13.72
2019-04-11T02:58:31.901Z,16.62
2019-04-11T02:59:38.771Z,11.78
2019-04-11T03:00:45.456Z,10.28
2019-04-11T03:01:52.844Z,9.45
2019-04-11T03:02:59.360Z,14.73
2019-04-11T03:04:07.243Z,12.85
2019-04-11T03:05:13.744Z,10.65
2019-04-11T03:06:19.381Z,9.08
2019-04-11T03:07:24.893Z,10.32
2019-04-11T03:08:34.204Z,9.85
2019-04-11T03:09:37.489Z,9.73
2019-04-11T03:10:43.069Z,7.22
2019-04-11T03:11:51.487Z,7.83
2019-04-11T03:12:58.892Z,8.15
2019-04-11T03:14:04.155Z,9.00
2019-04-11T03:15:28.843Z,8.05
2019-04-11T03:16:28.168Z,7.78
2019-04-11T03:17:30.784Z,10.32
2019-04-11T03:18:49.406Z,7.85
2019-04-11T03:19:49.233Z,9.13
2019-04-11T03:20:49.606Z,7.60
2019-04-11T03:21:52.371Z,9.65
2019-04-11T03:23:03.960Z,7.25
2019-04-11T03:24:06.872Z,7.90
2019-04-11T03:25:11.703Z,13.00
2019-04-11T03:26:18.453Z,8.28
2019-04-11T03:27:26.068Z,7.15
2019-04-11T03:28:33.037Z,7.80
2019-04-11T03:29:38.315Z,6.55
2019-04-11T03:31:06.730Z,9.83
2019-04-11T03:32:34.121Z,8.43
2019-04-11T03:37:11.679Z,7.85
2019-04-11T03:37:51.840Z,8.90
2019-04-11T03:38:58.817Z,6.83
2019-04-11T03:40:00.641Z,7.37
2019-04-11T03:41:04.302Z,7.45
2019-04-11T03:42:13.054Z,7.08
2019-04-11T03:43:11.760Z,7.35
2019-04-11T03:44:18.130Z,6.78
2019-04-11T03:45:38.625Z,6.37
2019-04-11T03:46:38.087Z,6.75
2019-04-11T03:47:40.778Z,8.80
2019-04-11T03:48:51.814Z,8.30
2019-04-11T03:49:51.081Z,7.90
2019-04-11T03:50:54.300Z,6.75
2019-04-11T03:51:59.154Z,7.87
2019-04-11T03:53:08.240Z,8.43
2019-04-11T03:54:13.552Z,7.97
2019-04-11T03:55:19.398Z,7.58
2019-04-11T03:56:26.644Z,8.10
2019-04-11T03:57:34.077Z,8.05
2019-04-11T03:58:39.716Z,8.90
2019-04-11T03:59:45.989Z,9.58
2019-04-11T04:00:53.476Z,7.47
2019-04-11T04:01:59.882Z,8.45
2019-04-11T04:03:06.202Z,6.95
2019-04-11T04:04:13.274Z,8.58
2019-04-11T04:05:19.296Z,7.83
2019-04-11T04:06:25.597Z,7.03
2019-04-11T04:07:31.962Z,6.70
2019-04-11T04:08:38.742Z,8.35
2019-04-11T04:09:46.223Z,7.30
2019-04-11T04:11:08.346Z,8.10
2019-04-11T04:12:15.494Z,6.55
2019-04-11T04:13:22.657Z,7.25
2019-04-11T04:14:44.538Z,7.20
2019-04-11T04:16:12.057Z,8.95
2019-04-11T04:17:32.967Z,6.08
2019-04-11T04:18:51.807Z,6.95
2019-04-11T04:20:22.073Z,6.83
2019-04-11T04:21:46.839Z,6.42
2019-04-11T04:23:12.410Z,7.28
2019-04-11T04:24:36.721Z,6.55
2019-04-11T04:25:42.672Z,6.28
2019-04-11T04:26:48.274Z,7.12
2019-04-11T04:27:54.633Z,7.03
2019-04-11T04:29:01.922Z,6.60
2019-04-11T04:30:08.589Z,8.90
2019-04-11T04:31:16.283Z,9.90
2019-04-11T04:32:23.728Z,11.18
2019-04-11T04:33:30.414Z,8.90
2019-04-11T04:34:36.696Z,9.83
2019-04-11T04:35:42.805Z,8.93
2019-04-11T04:36:49.695Z,10.18
2019-04-11T04:37:56.995Z,9.48
2019-04-11T04:39:04.151Z,8.93
2019-04-11T04:40:28.329Z,9.38
2019-04-11T04:41:29.776Z,10.75
2019-04-11T04:42:32.129Z,10.82
2019-04-11T04:43:33.977Z,10.72
2019-04-11T04:44:40.388Z,10.05
2019-04-11T04:46:03.450Z,10.50
2019-04-11T04:47:07.721Z,10.08
2019-04-11T04:48:05.564Z,10.40
2019-04-11T04:49:09.168Z,10.30
2019-04-11T04:50:15.458Z,10.00
2019-04-11T04:51:24.004Z,9.00
2019-04-11T04:52:29.403Z,10.28
2019-04-11T04:53:35.552Z,11.15
2019-04-11T04:54:42.186Z,12.05
2019-04-11T04:55:47.862Z,10.13
2019-04-11T04:56:54.641Z,10.60
2019-04-11T04:58:01.996Z,9.93
2019-04-11T04:59:09.425Z,8.65
2019-04-11T05:00:15.063Z,9.43
2019-04-11T05:01:21.697Z,9.20
2019-04-11T05:02:28.675Z,10.85
2019-04-11T05:03:34.821Z,10.72
2019-04-11T05:04:40.436Z,10.43
2019-04-11T05:05:46.568Z,9.83
2019-04-11T05:06:53.014Z,9.08
2019-04-11T05:08:00.539Z,9.95
2019-04-11T05:09:08.529Z,8.60
2019-04-11T05:10:15.352Z,10.88
2019-04-11T05:11:20.689Z,8.90
2019-04-11T05:12:26.146Z,9.60
2019-04-11T05:13:32.356Z,10.30
2019-04-11T05:14:39.154Z,12.40
2019-04-11T05:15:45.382Z,12.13
2019-04-11T05:16:50.717Z,11.48
2019-04-11T05:17:57.690Z,12.18
2019-04-11T05:19:04.409Z,12.30
2019-04-11T05:20:09.993Z,12.43
2019-04-11T05:21:15.178Z,12.85
2019-04-11T05:22:20.457Z,12.07
2019-04-11T05:23:25.728Z,10.75
2019-04-11T05:24:30.959Z,10.95
2019-04-11T05:25:36.928Z,12.68
2019-04-11T05:26:42.224Z,13.30
2019-04-11T05:27:48.245Z,12.37
2019-04-11T05:28:55.193Z,12.20
2019-04-11T05:30:01.238Z,13.10
2019-04-11T05:31:06.565Z,11.48
2019-04-11T05:32:12.014Z,19.20
2019-04-11T05:33:17.928Z,11.15
2019-04-11T05:34:23.842Z,12.85
2019-04-11T05:35:29.877Z,10.85
2019-04-11T05:36:35.273Z,9.50
2019-04-11T05:37:40.666Z,10.65
2019-04-11T05:38:46.380Z,10.35
2019-04-11T05:39:52.506Z,9.75
2019-04-11T05:41:00.211Z,8.78
2019-04-11T05:42:05.396Z,7.83
2019-04-11T05:43:11.437Z,11.83
2019-04-11T05:44:16.805Z,7.95
2019-04-11T05:45:24.489Z,10.85
2019-04-11T05:46:35.328Z,13.40
2019-04-11T05:47:37.236Z,8.93
2019-04-11T05:48:50.801Z,9.65
2019-04-11T05:50:15.883Z,8.93
2019-04-11T05:51:23.437Z,8.90
2019-04-11T05:52:31.075Z,9.33
2019-04-11T05:53:36.985Z,9.75
2019-04-11T05:54:49.764Z,8.63
2019-04-11T05:55:57.332Z,9.45
2019-04-11T05:57:03.194Z,7.62
2019-04-11T05:58:12.748Z,7.17
2019-04-11T05:59:20.400Z,8.63
2019-04-11T06:00:34.609Z,9.63
2019-04-11T06:01:44.593Z,9.78
2019-04-11T06:02:59.672Z,12.35
2019-04-11T06:04:14.130Z,15.03
2019-04-11T06:05:37.582Z,9.18
2019-04-11T06:07:03.168Z,12.28
2019-04-11T06:08:12.540Z,10.03
2019-04-11T06:09:25.278Z,8.90
2019-04-11T06:10:42.618Z,10.72
2019-04-11T06:11:57.539Z,9.63
2019-04-11T06:13:34.448Z,9.88
2019-04-11T06:14:44.521Z,9.33
2019-04-11T06:15:53.424Z,9.90
2019-04-11T06:17:02.525Z,11.30
2019-04-11T06:18:27.071Z,9.48
2019-04-11T06:19:47.999Z,10.25
2019-04-11T06:20:55.675Z,10.15
2019-04-11T06:22:11.143Z,10.00
2019-04-11T06:23:35.284Z,9.83
2019-04-11T06:25:03.576Z,12.15
2019-04-11T06:26:27.959Z,12.07
2019-04-11T06:27:42.827Z,13.90
2019-04-11T06:28:47.944Z,14.78
2019-04-11T06:30:10.779Z,10.75
2019-04-11T06:31:45.377Z,10.40
2019-04-11T06:33:08.382Z,10.70
2019-04-11T06:34:13.979Z,8.75
2019-04-11T06:35:37.973Z,8.30
2019-04-11T06:37:03.466Z,7.90
2019-04-11T06:38:40.742Z,9.30
2019-04-11T06:40:00.765Z,8.03
2019-04-11T06:41:12.864Z,9.95
2019-04-11T06:42:31.717Z,8.10
2019-04-11T06:43:45.802Z,11.33
2019-04-11T06:45:22.058Z,10.20
2019-04-11T06:46:49.552Z,8.25
2019-04-11T06:48:23.738Z,11.48
2019-04-11T06:49:36.716Z,10.58
2019-04-11T06:50:56.235Z,10.35
2019-04-11T06:52:05.563Z,9.83
2019-04-11T06:53:12.540Z,12.85
2019-04-11T06:54:30.743Z,9.53
2019-04-11T06:55:55.096Z,10.93
2019-04-11T06:57:01.258Z,10.05
2019-04-11T06:58:13.646Z,10.05
2019-04-11T06:59:32.685Z,9.45
2019-04-11T07:00:41.009Z,12.07
2019-04-11T07:01:47.580Z,10.15
2019-04-11T07:02:59.270Z,11.93
2019-04-11T07:04:21.852Z,9.23
2019-04-11T07:05:28.951Z,9.25
2019-04-11T07:06:37.693Z,9.28
2019-04-11T07:07:46.707Z,11.85
2019-04-11T07:09:24.346Z,9.98
2019-04-11T07:10:51.056Z,10.08
2019-04-11T07:12:01.348Z,9.85
2019-04-11T07:13:20.683Z,9.40
2019-04-11T07:14:48.210Z,11.80
2019-04-11T07:15:56.920Z,8.80
2019-04-11T07:17:19.538Z,8.93
2019-04-11T07:18:59.064Z,9.53
2019-04-11T07:20:27.165Z,9.50
2019-04-11T07:21:36.500Z,7.40
2019-04-11T07:23:13.605Z,7.95
2019-04-11T07:24:22.392Z,7.80
2019-04-11T07:25:37.426Z,10.93
2019-04-11T07:26:45.825Z,8.18
2019-04-11T07:28:07.857Z,9.58
2019-04-11T07:29:31.520Z,7.97
2019-04-11T07:30:54.489Z,10.03
2019-04-11T07:32:20.184Z,8.65
2019-04-11T07:33:51.785Z,10.30
2019-04-11T07:35:15.665Z,9.18
2019-04-11T07:36:38.674Z,10.05
2019-04-11T07:37:49.403Z,9.48
2019-04-11T07:38:58.883Z,9.25
2019-04-11T07:40:27.021Z,10.28
2019-04-11T07:41:55.895Z,10.35
2019-04-11T07:43:29.526Z,7.97
2019-04-11T07:44:34.751Z,8.30
2019-04-11T07:45:53.701Z,8.10
2019-04-11T07:47:17.192Z,10.40
2019-04-11T07:48:22.460Z,11.57
2019-04-11T07:49:33.200Z,10.45
2019-04-11T07:50:38.415Z,10.65
2019-04-11T07:51:54.599Z,9.20
2019-04-11T07:53:03.070Z,8.30
2019-04-11T07:54:15.705Z,10.60
2019-04-11T07:55:23.669Z,9.35
2019-04-11T07:56:50.761Z,9.63
2019-04-11T07:58:13.792Z,10.20
2019-04-11T07:59:44.040Z,10.63
2019-04-11T08:01:04.953Z,9.73
2019-04-11T08:02:28.992Z,8.63
2019-04-11T08:04:12.558Z,8.55
2019-04-11T08:05:38.757Z,10.65
2019-04-11T08:07:15.485Z,8.65
2019-04-11T08:08:54.579Z,11.95
2019-04-11T08:10:08.530Z,10.60
2019-04-11T08:11:27.447Z,18.02
2019-04-11T08:12:35.528Z,30.65
2019-04-11T08:14:00.106Z,26.17
2019-04-11T08:15:27.643Z,30.25
2019-04-11T08:16:51.594Z,17.45
2019-04-11T08:17:58.068Z,7.05
2019-04-11T08:19:21.116Z,5.75
2019-04-11T08:21:01.678Z,5.03
2019-04-11T08:22:21.590Z,8.15
2019-04-11T08:23:27.791Z,7.33
2019-04-11T08:24:42.649Z,5.60
2019-04-11T08:26:07.022Z,7.55
2019-04-11T08:27:48.464Z,4.70
2019-04-11T08:28:45.603Z,7.72
2019-04-11T08:29:54.540Z,5.95
2019-04-11T08:31:28.791Z,5.85
2019-04-11T08:32:49.885Z,10.63
2019-04-11T08:33:59.271Z,6.60
2019-04-11T08:35:24.041Z,5.87
2019-04-11T08:36:42.063Z,9.15
2019-04-11T08:38:01.010Z,8.50
2019-04-11T08:39:15.478Z,10.50
2019-04-11T08:40:21.771Z,6.00
2019-04-11T08:41:55.170Z,6.17
2019-04-11T08:43:15.055Z,5.83
2019-04-11T08:44:41.744Z,5.25
2019-04-11T08:45:51.379Z,7.42
2019-04-11T08:47:02.423Z,6.45
2019-04-11T08:48:08.807Z,6.03
2019-04-11T08:49:31.356Z,6.33
2019-04-11T08:50:38.683Z,6.72
2019-04-11T08:51:44.937Z,6.47
2019-04-11T08:53:09.405Z,7.78
2019-04-11T08:54:33.870Z,4.08
2019-04-11T08:55:52.888Z,3.95
2019-04-11T08:56:51.916Z,6.05
2019-04-11T08:58:22.641Z,7.40
2019-04-11T08:59:42.325Z,4.87
2019-04-11T09:00:53.099Z,6.22
2019-04-11T09:02:00.477Z,5.85
2019-04-11T09:03:24.546Z,3.72
2019-04-11T09:04:48.273Z,2.77
2019-04-11T09:06:15.100Z,4.80
2019-04-11T09:07:23.239Z,7.08
2019-04-11T09:08:59.118Z,3.20
2019-04-11T09:10:26.238Z,2.55
2019-04-11T09:11:54.083Z,3.75
2019-04-11T09:13:07.077Z,4.50
2019-04-11T09:14:30.510Z,4.72
2019-04-11T09:15:53.529Z,7.58
2019-04-11T09:17:30.314Z,4.30
2019-04-11T09:18:36.478Z,2.98
2019-04-11T09:20:03.695Z,2.70
2019-04-11T09:21:40.409Z,74.32
2019-04-11T09:23:01.611Z,165.40
2019-04-11T09:24:15.274Z,238.43
2019-04-11T09:25:43.460Z,59.53
2019-04-11T09:27:08.699Z,21.02
2019-04-11T09:28:49.461Z,194.40
2019-04-11T09:29:58.659Z,31.25
2019-04-11T09:31:25.606Z,42.38
2019-04-11T09:32:48.693Z,64.07
2019-04-11T09:34:05.844Z,134.82
2019-04-11T09:35:21.991Z,113.17
2019-04-11T09:37:03.055Z,76.40
2019-04-11T09:38:08.543Z,203.07
2019-04-11T09:39:45.572Z,26.60
2019-04-11T09:41:09.741Z,66.07
2019-04-11T09:42:28.857Z,203.18
2019-04-11T09:43:34.047Z,120.10
2019-04-11T09:44:55.176Z,157.37
2019-04-11T09:46:24.008Z,130.43
2019-04-11T09:47:51.908Z,47.93
2019-04-11T09:49:29.064Z,32.67
2019-04-11T09:51:03.014Z,38.60
2019-04-11T09:52:14.191Z,42.03
2019-04-11T09:53:20.654Z,19.12
2019-04-11T09:54:48.455Z,19.70
2019-04-11T09:56:11.224Z,9.43
2019-04-11T09:57:28.949Z,7.67
2019-04-11T09:58:34.232Z,13.40
2019-04-11T09:59:58.406Z,15.05
2019-04-11T10:01:25.299Z,11.33
2019-04-11T10:02:52.769Z,17.92
2019-04-11T10:03:59.257Z,7.60
2019-04-11T10:05:07.538Z,35.33
2019-04-11T10:06:38.745Z,8.25
2019-04-11T10:08:09.113Z,17.73
2019-04-11T10:09:15.512Z,9.05
2019-04-11T10:10:41.885Z,12.45
2019-04-11T10:12:04.531Z,6.70
2019-04-11T10:13:27.338Z,6.60
2019-04-11T10:14:33.489Z,6.40
2019-04-11T10:16:09.788Z,4.65
2019-04-11T10:17:33.680Z,9.83
2019-04-11T10:19:03.704Z,4.40
2019-04-11T10:20:11.177Z,2.75
2019-04-11T10:21:17.254Z,3.22
2019-04-11T10:22:48.061Z,3.00
2019-04-11T10:24:05.497Z,2.35
2019-04-11T10:25:17.187Z,4.22
2019-04-11T10:26:23.569Z,3.08
2019-04-11T10:27:47.012Z,5.85
2019-04-11T10:29:08.679Z,5.97
2019-04-11T10:30:39.921Z,6.03
2019-04-11T10:31:46.525Z,4.17
2019-04-11T10:32:55.207Z,4.30
2019-04-11T10:34:28.334Z,2.80
2019-04-11T10:35:50.970Z,2.83
2019-04-11T10:37:03.563Z,3.85
2019-04-11T10:38:11.970Z,10.05
2019-04-11T10:39:49.267Z,14.45
2019-04-11T10:41:14.669Z,21.25
2019-04-11T10:42:20.244Z,16.77
2019-04-11T10:43:28.684Z,15.85
2019-04-11T10:44:47.895Z,9.50
2019-04-11T10:46:18.088Z,13.15
2019-04-11T10:47:25.050Z,18.90
2019-04-11T10:48:45.316Z,8.95
2019-04-11T10:50:21.762Z,8.48
2019-04-11T10:51:51.983Z,6.03
2019-04-11T10:53:00.517Z,3.67
2019-04-11T10:54:07.387Z,8.98
2019-04-11T10:55:19.752Z,11.57
2019-04-11T10:56:43.238Z,10.05
2019-04-11T10:58:08.720Z,41.33
2019-04-11T10:59:17.509Z,11.22
2019-04-11T11:00:33.687Z,6.53
2019-04-11T11:01:58.118Z,3.92
2019-04-11T11:03:16.388Z,5.83
2019-04-11T11:04:43.154Z,4.40
2019-04-11T11:05:53.640Z,5.87
2019-04-11T11:07:02.846Z,10.10
2019-04-11T11:08:18.067Z,22.75
2019-04-11T11:09:35.314Z,7.25
2019-04-11T11:10:41.853Z,45.92
2019-04-11T11:11:54.764Z,17.17
2019-04-11T11:13:26.348Z,13.55
2019-04-11T11:14:56.076Z,20.97
2019-04-11T11:16:02.168Z,17.02
2019-04-11T11:17:47.178Z,9.63
2019-04-11T11:19:31.209Z,9.00
2019-04-11T11:20:36.289Z,28.92
2019-04-11T11:21:37.363Z,11.15
2019-04-11T11:23:02.867Z,7.80
2019-04-11T11:24:33.775Z,6.05
2019-04-11T11:25:48.545Z,14.43
2019-04-11T11:26:56.729Z,6.80
2019-04-11T11:28:03.177Z,15.98
2019-04-11T11:29:43.067Z,9.68
2019-04-11T11:31:07.646Z,6.15
2019-04-11T11:32:22.063Z,5.22
2019-04-11T11:33:30.091Z,3.83
2019-04-11T11:34:52.827Z,5.00
2019-04-11T11:36:15.344Z,7.03
2019-04-11T11:37:41.844Z,5.97
2019-04-11T11:39:04.640Z,11.90
2019-04-11T11:40:27.956Z,14.98
2019-04-11T11:42:02.088Z,10.88
2019-04-11T11:44:37.119Z,9.68
2019-04-11T11:46:04.472Z,12.20
2019-04-11T11:47:38.701Z,12.55
2019-04-11T11:48:53.753Z,8.05
2019-04-11T11:50:02.381Z,6.17
2019-04-11T11:51:09.191Z,8.38
2019-04-11T11:52:39.355Z,10.82
2019-04-11T11:54:08.425Z,82.42
2019-04-11T11:55:19.017Z,12.78
2019-04-11T11:56:24.528Z,10.50
2019-04-11T11:57:45.021Z,7.12
2019-04-11T11:59:09.120Z,6.65
2019-04-11T12:00:23.307Z,8.28
2019-04-11T12:01:29.562Z,12.70
2019-04-11T12:02:39.688Z,7.55
2019-04-11T12:04:08.588Z,7.20
2019-04-11T12:05:22.324Z,18.75
2019-04-11T12:06:31.196Z,7.37
2019-04-11T12:07:47.482Z,11.78
2019-04-11T12:09:10.658Z,5.97
2019-04-11T12:10:39.620Z,8.58
2019-04-11T12:11:48.541Z,8.25
2019-04-11T12:13:10.865Z,6.00
2019-04-11T12:14:35.280Z,5.05
2019-04-11T12:16:01.579Z,4.50
2019-04-11T12:17:29.305Z,3.37
2019-04-11T12:18:55.377Z,5.62
2019-04-11T12:20:11.307Z,2.87
2019-04-11T12:21:16.338Z,4.80
2019-04-11T12:22:21.293Z,2.22
2019-04-11T12:24:00.672Z,9.65
2019-04-11T12:25:12.499Z,14.28
2019-04-11T12:26:18.398Z,5.55
2019-04-11T12:27:52.160Z,5.80
2019-04-11T12:29:17.098Z,8.03
2019-04-11T12:30:40.382Z,4.75
2019-04-11T12:31:48.512Z,7.25
2019-04-11T12:33:01.318Z,10.32
2019-04-11T12:34:32.369Z,7.05
2019-04-11T12:35:48.682Z,6.97
2019-04-11T12:36:54.730Z,4.12
2019-04-11T12:38:06.483Z,7.08
2019-04-11T12:39:29.725Z,4.55
2019-04-11T12:40:52.232Z,5.70
2019-04-11T12:42:14.943Z,4.00
2019-04-11T12:43:22.666Z,4.10
2019-04-11T12:44:44.899Z,3.83
2019-04-11T12:46:07.907Z,3.47
2019-04-11T12:47:22.310Z,5.22
2019-04-11T12:48:35.155Z,8.90
2019-04-11T12:50:04.649Z,5.35
2019-04-11T12:51:38.174Z,7.17
2019-04-11T12:52:47.481Z,5.15
2019-04-11T12:53:54.457Z,7.65
2019-04-11T12:54:59.666Z,4.65
2019-04-11T12:56:26.792Z,5.62
2019-04-11T12:57:49.639Z,5.78
2019-04-11T12:59:10.383Z,10.68
2019-04-11T13:00:28.361Z,9.20
2019-04-11T13:01:51.008Z,6.50
2019-04-11T13:03:13.748Z,13.60
2019-04-11T13:04:35.881Z,10.25
2019-04-11T13:05:44.235Z,6.65
2019-04-11T13:07:06.542Z,8.40
2019-04-11T13:08:42.827Z,5.25
2019-04-11T13:10:12.932Z,7.30
2019-04-11T13:11:23.271Z,6.05
2019-04-11T13:12:46.188Z,5.37
2019-04-11T13:14:21.657Z,6.92
2019-04-11T13:15:34.949Z,7.60
2019-04-11T13:16:41.147Z,3.62
2019-04-11T13:17:58.638Z,6.95
2019-04-11T13:19:35.229Z,3.62
2019-04-11T13:21:03.465Z,3.58
2019-04-11T13:22:17.613Z,5.45
2019-04-11T13:23:52.122Z,5.20
2019-04-11T13:25:31.528Z,4.20
2019-04-11T13:26:55.802Z,5.85
2019-04-11T13:28:01.286Z,5.70
2019-04-11T13:29:28.534Z,7.72
2019-04-11T13:31:12.996Z,5.53
2019-04-11T13:32:28.794Z,3.55
2019-04-11T13:33:34.148Z,5.05
2019-04-11T13:34:41.644Z,5.20
2019-04-11T13:36:05.920Z,7.33
2019-04-11T13:37:33.010Z,5.67
2019-04-11T13:39:02.359Z,6.70
2019-04-11T13:40:20.658Z,7.15
2019-04-11T13:41:56.969Z,4.33
2019-04-11T13:43:29.929Z,4.95
2019-04-11T13:44:36.972Z,3.65
2019-04-11T13:45:53.488Z,4.62
2019-04-11T13:47:27.547Z,4.15
2019-04-11T13:48:50.211Z,3.95
2019-04-11T13:49:57.920Z,5.85
2019-04-11T13:51:07.640Z,6.28
2019-04-11T13:52:34.892Z,6.92
2019-04-11T13:54:08.150Z,8.38
2019-04-11T13:55:24.502Z,10.35
2019-04-11T13:56:37.427Z,10.43
2019-04-11T13:58:01.439Z,14.23
2019-04-11T13:59:35.129Z,14.65
2019-04-11T14:00:56.660Z,13.90
2019-04-11T14:02:08.995Z,9.88
2019-04-11T14:03:36.214Z,10.45
2019-04-11T14:04:44.894Z,15.32
2019-04-11T14:05:50.334Z,15.00
2019-04-11T14:06:56.154Z,13.65
2019-04-11T14:08:01.275Z,11.15
2019-04-11T14:09:31.656Z,10.80
2019-04-11T14:10:36.876Z,11.73
2019-04-11T14:11:45.345Z,10.32
2019-04-11T14:12:55.546Z,15.25
2019-04-11T14:14:11.718Z,6.35
2019-04-11T14:15:20.191Z,8.05
2019-04-11T14:16:26.638Z,7.45
2019-04-11T14:18:11.327Z,6.03
2019-04-11T14:19:49.759Z,9.88
2019-04-11T14:21:02.569Z,4.92
2019-04-11T14:22:13.551Z,7.78
2019-04-11T14:23:36.153Z,7.42
2019-04-11T14:24:55.308Z,4.62
2019-04-11T14:26:19.425Z,6.20
2019-04-11T14:27:26.856Z,3.08
2019-04-11T14:28:54.735Z,4.80
2019-04-11T14:30:35.023Z,6.47
2019-04-11T14:31:48.159Z,6.75
2019-04-11T14:32:53.956Z,5.78
2019-04-11T14:34:24.729Z,13.48
2019-04-11T14:35:48.942Z,4.58
2019-04-11T14:37:20.756Z,4.22
2019-04-11T14:38:26.367Z,5.83
2019-04-11T14:39:35.069Z,4.20
2019-04-11T14:41:01.845Z,3.08
2019-04-11T14:42:37.255Z,4.50
2019-04-11T14:43:49.478Z,7.40
2019-04-11T14:44:54.572Z,5.75
2019-04-11T14:46:18.989Z,5.85
2019-04-11T14:47:43.035Z,4.87
2019-04-11T14:48:50.844Z,6.70
2019-04-11T14:50:01.715Z,4.72
2019-04-11T14:51:19.676Z,4.58
2019-04-11T14:52:46.719Z,3.77
2019-04-11T14:54:04.894Z,3.55
2019-04-11T14:55:10.489Z,4.25
2019-04-11T14:56:15.730Z,4.17
2019-04-11T14:57:48.678Z,5.50
2019-04-11T14:59:30.638Z,6.92
2019-04-11T15:00:45.121Z,6.67
2019-04-11T15:01:52.498Z,5.67
2019-04-11T15:03:25.367Z,5.60
2019-04-11T15:04:48.151Z,8.93
2019-04-11T15:06:18.211Z,9.35
2019-04-11T15:07:23.135Z,7.05
2019-04-11T15:08:39.915Z,6.53
2019-04-11T15:09:50.800Z,6.35
2019-04-11T15:11:23.609Z,5.33
2019-04-11T15:12:30.928Z,5.25
2019-04-11T15:13:35.925Z,5.05
2019-04-11T15:15:08.695Z,4.75
2019-04-11T15:16:31.498Z,5.03
2019-04-11T15:17:38.410Z,8.40
2019-04-11T15:18:52.374Z,6.40
2019-04-11T15:20:16.256Z,8.90
2019-04-11T15:21:40.033Z,6.47
2019-04-11T15:22:51.207Z,4.62
2019-04-11T15:23:56.120Z,5.58
2019-04-11T15:25:08.736Z,6.58
2019-04-11T15:26:41.092Z,6.40
2019-04-11T15:28:04.967Z,5.85
2019-04-11T15:29:15.200Z,6.22
2019-04-11T15:30:20.429Z,6.15
2019-04-11T15:31:39.090Z,8.70
2019-04-11T15:33:07.955Z,8.93
2019-04-11T15:34:19.197Z,8.58
2019-04-11T15:35:24.072Z,7.37
2019-04-11T15:36:29.009Z,7.85
2019-04-11T15:37:51.344Z,8.08
2019-04-11T15:39:14.048Z,8.70
2019-04-11T15:40:22.808Z,7.50
2019-04-11T15:41:28.807Z,7.80
2019-04-11T15:43:01.746Z,10.08
2019-04-11T15:44:25.900Z,9.75
2019-04-11T15:45:38.275Z,9.85
2019-04-11T15:46:47.501Z,7.72
2019-04-11T15:48:05.145Z,8.10
2019-04-11T15:49:46.469Z,11.45
2019-04-11T15:51:09.035Z,9.65
2019-04-11T15:52:17.449Z,10.08
2019-04-11T15:53:28.817Z,9.78
2019-04-11T15:54:52.723Z,7.30
2019-04-11T15:56:16.769Z,7.00
2019-04-11T15:57:58.909Z,8.18
2019-04-11T15:59:13.640Z,6.72
2019-04-11T16:00:45.297Z,7.67
2019-04-11T16:02:07.731Z,8.48
2019-04-11T16:03:20.974Z,10.70
2019-04-11T16:04:45.608Z,13.53
2019-04-11T16:06:12.564Z,12.63
2019-04-11T16:07:40.136Z,13.32
2019-04-11T16:08:47.127Z,8.33
2019-04-11T16:09:52.226Z,9.08
2019-04-11T16:11:05.417Z,8.98
2019-04-11T16:12:23.169Z,16.37
2019-04-11T16:13:39.354Z,17.77
2019-04-11T16:14:44.413Z,16.20
2019-04-11T16:15:51.074Z,11.10
2019-04-11T16:17:15.166Z,11.83
2019-04-11T16:18:39.161Z,9.95
2019-04-11T16:19:55.492Z,13.53
2019-04-11T16:21:03.892Z,10.70
2019-04-11T16:22:34.064Z,10.80
2019-04-11T16:23:51.090Z,10.95
2019-04-11T16:24:58.347Z,11.03